PRIVATE WETTERSTATION BILLIGHEIM-ALLFELD                       ZURCK
Wetterdaten: Freitag, 01.04.2016
Datum Zeit Temp. A. Temp. A. min Temp. A. max Feuchte A. Luftdruck Regen Wind Richtung Richtung Sonnenschein ET Solar Taupunkt Windchill Windben Empfang
01.04.2016 00:00 9,2 C 9,2 C 9,3 C 91 % 1005,3 hPa 0,0 l/m 0,0 km/h (0 Bft) N-NO 22 0 min 0,000 mm 0 W/m 7,8 C 9,2 C 8,0 km/h (2 Bft) 99 %
01.04.2016 00:10 9,1 C 9,1 C 9,2 C 91 % 1005,0 hPa 0,0 l/m 0,0 km/h (0 Bft) N 360 0 min 0,000 mm 0 W/m 7,7 C 9,1 C 6,4 km/h (2 Bft) 79 %
01.04.2016 00:20 9,1 C 9,1 C 9,1 C 91 % 1005,7 hPa 0,0 l/m 0,0 km/h (0 Bft) NW 315 0 min 0,000 mm 0 W/m 7,7 C 9,1 C 8,0 km/h (2 Bft) 100 %
01.04.2016 00:30 8,9 C 8,9 C 9,1 C 91 % 1006,4 hPa 0,0 l/m 1,6 km/h (1 Bft) NW 315 0 min 0,000 mm 0 W/m 7,5 C 8,9 C 14,5 km/h (3 Bft) 100 %
01.04.2016 00:40 8,7 C 8,7 C 8,9 C 91 % 1005,8 hPa 0,2 l/m 0,0 km/h (0 Bft) N-NW 337 0 min 0,000 mm 0 W/m 7,3 C 8,7 C 6,4 km/h (2 Bft) 100 %
01.04.2016 00:50 8,4 C 8,4 C 8,7 C 91 % 1005,8 hPa 0,0 l/m 1,6 km/h (1 Bft) N-NW 337 0 min 0,000 mm 0 W/m 7,0 C 8,4 C 11,3 km/h (2 Bft) 100 %
01.04.2016 01:00 8,2 C 8,2 C 8,4 C 91 % 1006,1 hPa 0,0 l/m 3,2 km/h (1 Bft) N-NW 337 0 min 0,000 mm 0 W/m 6,8 C 8,2 C 17,7 km/h (3 Bft) 99 %
01.04.2016 01:10 7,8 C 7,8 C 8,2 C 91 % 1005,5 hPa 0,0 l/m 1,6 km/h (1 Bft) N-NO 22 0 min 0,000 mm 0 W/m 6,4 C 7,8 C 19,3 km/h (3 Bft) 96 %
01.04.2016 01:20 7,5 C 7,5 C 7,8 C 91 % 1006,0 hPa 0,0 l/m 3,2 km/h (1 Bft) N-NW 337 0 min 0,000 mm 0 W/m 6,1 C 7,5 C 17,7 km/h (3 Bft) 99 %
01.04.2016 01:30 7,3 C 7,3 C 7,5 C 91 % 1007,2 hPa 0,0 l/m 9,7 km/h (2 Bft) N-NW 337 0 min 0,000 mm 0 W/m 5,9 C 4,8 C 24,1 km/h (4 Bft) 91 %
01.04.2016 01:40 7,2 C 7,2 C 7,3 C 91 % 1008,1 hPa 0,0 l/m 8,0 km/h (2 Bft) NW 315 0 min 0,000 mm 0 W/m 5,8 C 5,9 C 19,3 km/h (3 Bft) 98 %
01.04.2016 01:50 7,1 C 7,1 C 7,2 C 91 % 1007,3 hPa 0,4 l/m 1,6 km/h (1 Bft) N-NO 22 0 min 0,000 mm 0 W/m 5,7 C 7,1 C 9,7 km/h (2 Bft) 100 %
01.04.2016 02:00 6,8 C 6,8 C 7,1 C 91 % 1006,3 hPa 0,0 l/m 3,2 km/h (1 Bft) NO 45 0 min 0,000 mm 0 W/m 5,4 C 6,8 C 12,9 km/h (3 Bft) 100 %
01.04.2016 02:10 6,7 C 6,7 C 6,8 C 91 % 1006,6 hPa 0,0 l/m 4,8 km/h (1 Bft) NO 45 0 min 0,000 mm 0 W/m 5,3 C 6,7 C 16,1 km/h (3 Bft) 99 %
01.04.2016 02:20 6,6 C 6,6 C 6,7 C 91 % 1006,7 hPa 0,0 l/m 1,6 km/h (1 Bft) NO 45 0 min 0,000 mm 0 W/m 5,2 C 6,6 C 8,0 km/h (2 Bft) 99 %
01.04.2016 02:30 6,6 C 6,6 C 6,6 C 91 % 1007,9 hPa 0,2 l/m 3,2 km/h (1 Bft) NW 315 0 min 0,000 mm 0 W/m 5,2 C 6,6 C 17,7 km/h (3 Bft) 100 %
01.04.2016 02:40 6,6 C 6,6 C 6,6 C 91 % 1007,7 hPa 0,0 l/m 4,8 km/h (1 Bft) N-NW 337 0 min 0,000 mm 0 W/m 5,2 C 6,6 C 20,9 km/h (4 Bft) 100 %
01.04.2016 02:50 6,5 C 6,5 C 6,6 C 91 % 1007,5 hPa 0,0 l/m 1,6 km/h (1 Bft) N-NW 337 0 min 0,000 mm 0 W/m 5,1 C 6,5 C 17,7 km/h (3 Bft) 99 %
01.04.2016 03:00 6,3 C 6,3 C 6,5 C 91 % 1007,4 hPa 0,0 l/m 1,6 km/h (1 Bft) NO 45 0 min 0,000 mm 0 W/m 4,9 C 6,3 C 8,0 km/h (2 Bft) 99 %
01.04.2016 03:10 6,3 C 6,2 C 6,3 C 91 % 1008,6 hPa 0,0 l/m 1,6 km/h (1 Bft) NO 45 0 min 0,000 mm 0 W/m 4,9 C 6,3 C 12,9 km/h (3 Bft) 100 %
01.04.2016 03:20 6,1 C 6,1 C 6,2 C 91 % 1008,1 hPa 0,6 l/m 1,6 km/h (1 Bft) NO 45 0 min 0,000 mm 0 W/m 4,7 C 6,1 C 17,7 km/h (3 Bft) 100 %
01.04.2016 03:30 6,0 C 6,0 C 6,1 C 91 % 1007,9 hPa 0,2 l/m 3,2 km/h (1 Bft) NO 45 0 min 0,000 mm 0 W/m 4,6 C 6,0 C 17,7 km/h (3 Bft) 100 %
01.04.2016 03:40 6,0 C 5,9 C 6,0 C 91 % 1008,4 hPa 0,2 l/m 1,6 km/h (1 Bft) NO 45 0 min 0,000 mm 0 W/m 4,6 C 6,0 C 9,7 km/h (2 Bft) 99 %
01.04.2016 03:50 5,9 C 5,9 C 6,0 C 91 % 1008,7 hPa 0,4 l/m 0,0 km/h (0 Bft) NO 45 0 min 0,000 mm 0 W/m 4,5 C 5,9 C 8,0 km/h (2 Bft) 100 %
01.04.2016 04:00 5,9 C 5,9 C 5,9 C 91 % 1009,1 hPa 0,2 l/m 0,0 km/h (0 Bft) N 360 0 min 0,000 mm 0 W/m 4,5 C 5,9 C 6,4 km/h (2 Bft) 99 %
01.04.2016 04:10 5,9 C 5,9 C 6,0 C 91 % 1009,1 hPa 0,2 l/m 0,0 km/h (0 Bft) N-NW 337 0 min 0,000 mm 0 W/m 4,5 C 5,9 C 8,0 km/h (2 Bft) 100 %
01.04.2016 04:20 5,9 C 5,9 C 5,9 C 91 % 1009,4 hPa 0,0 l/m 1,6 km/h (1 Bft) N-NW 337 0 min 0,000 mm 0 W/m 4,5 C 5,9 C 9,7 km/h (2 Bft) 99 %
01.04.2016 04:30 5,8 C 5,8 C 5,9 C 91 % 1009,7 hPa 0,0 l/m 0,0 km/h (0 Bft) N-NW 337 0 min 0,000 mm 0 W/m 4,4 C 5,8 C 6,4 km/h (2 Bft) 99 %
01.04.2016 04:40 5,8 C 5,8 C 5,9 C 91 % 1010,1 hPa 0,2 l/m 0,0 km/h (0 Bft) N-NW 337 0 min 0,000 mm 0 W/m 4,4 C 5,8 C 4,8 km/h (1 Bft) 100 %
01.04.2016 04:50 5,7 C 5,7 C 5,8 C 91 % 1010,3 hPa 0,0 l/m 1,6 km/h (1 Bft) N-NW 337 0 min 0,000 mm 0 W/m 4,3 C 5,7 C 8,0 km/h (2 Bft) 100 %
01.04.2016 05:00 5,6 C 5,6 C 5,7 C 91 % 1010,4 hPa 0,0 l/m 0,0 km/h (0 Bft) N-NW 337 0 min 0,000 mm 0 W/m 4,2 C 5,6 C 6,4 km/h (2 Bft) 100 %
01.04.2016 05:10 5,4 C 5,4 C 5,6 C 91 % 1010,3 hPa 0,0 l/m 0,0 km/h (0 Bft) N 360 0 min 0,000 mm 0 W/m 4,1 C 5,4 C 6,4 km/h (2 Bft) 99 %
01.04.2016 05:20 5,3 C 5,3 C 5,4 C 91 % 1010,9 hPa 0,0 l/m 1,6 km/h (1 Bft) N-NW 337 0 min 0,000 mm 0 W/m 4,0 C 5,3 C 8,0 km/h (2 Bft) 100 %
01.04.2016 05:30 5,3 C 5,3 C 5,3 C 91 % 1011,3 hPa 0,0 l/m 0,0 km/h (0 Bft) N 360 0 min 0,000 mm 0 W/m 4,0 C 5,3 C 9,7 km/h (2 Bft) 100 %
01.04.2016 05:40 5,1 C 5,1 C 5,3 C 91 % 1011,8 hPa 0,0 l/m 1,6 km/h (1 Bft) N-NW 337 0 min 0,000 mm 0 W/m 3,8 C 5,1 C 16,1 km/h (3 Bft) 100 %
01.04.2016 05:50 5,0 C 5,0 C 5,1 C 91 % 1011,8 hPa 0,0 l/m 1,6 km/h (1 Bft) N-NW 337 0 min 0,000 mm 0 W/m 3,7 C 5,0 C 6,4 km/h (2 Bft) 100 %
01.04.2016 06:00 4,9 C 4,9 C 5,0 C 91 % 1011,8 hPa 0,0 l/m 0,0 km/h (0 Bft) N 360 0 min 0,000 mm 0 W/m 3,6 C 4,9 C 11,3 km/h (2 Bft) 100 %
01.04.2016 06:10 4,8 C 4,8 C 4,9 C 91 % 1012,0 hPa 0,0 l/m 1,6 km/h (1 Bft) N-NW 337 0 min 0,000 mm 0 W/m 3,5 C 4,8 C 9,7 km/h (2 Bft) 100 %
01.04.2016 06:20 4,7 C 4,7 C 4,8 C 91 % 1012,1 hPa 0,0 l/m 0,0 km/h (0 Bft) NO 45 0 min 0,000 mm 0 W/m 3,4 C 4,7 C 8,0 km/h (2 Bft) 100 %
01.04.2016 06:30 4,6 C 4,6 C 4,7 C 91 % 1012,2 hPa 0,0 l/m 0,0 km/h (0 Bft) N-NO 22 0 min 0,000 mm 0 W/m 3,3 C 4,6 C 4,8 km/h (1 Bft) 100 %
01.04.2016 06:40 4,5 C 4,5 C 4,6 C 91 % 1012,3 hPa 0,2 l/m 0,0 km/h (0 Bft) N-NO 22 0 min 0,000 mm 0 W/m 3,2 C 4,5 C 4,8 km/h (1 Bft) 100 %
01.04.2016 06:50 4,4 C 4,4 C 4,5 C 91 % 1012,5 hPa 0,0 l/m 0,0 km/h (0 Bft) NO 45 0 min 0,000 mm 0 W/m 3,1 C 4,4 C 6,4 km/h (2 Bft) 100 %
01.04.2016 07:00 4,3 C 4,3 C 4,4 C 91 % 1012,6 hPa 0,0 l/m 0,0 km/h (0 Bft) NO 45 0 min 0,000 mm 0 W/m 3,0 C 4,3 C 6,4 km/h (2 Bft) 100 %
01.04.2016 07:10 4,2 C 4,2 C 4,3 C 91 % 1012,6 hPa 0,0 l/m 3,2 km/h (1 Bft) NO 45 0 min 0,000 mm 0 W/m 2,9 C 4,2 C 9,7 km/h (2 Bft) 100 %
01.04.2016 07:20 4,1 C 4,1 C 4,2 C 91 % 1012,9 hPa 0,0 l/m 1,6 km/h (1 Bft) NO 45 0 min 0,000 mm 0 W/m 2,8 C 4,1 C 8,0 km/h (2 Bft) 100 %
01.04.2016 07:30 4,1 C 4,1 C 4,1 C 91 % 1013,3 hPa 0,0 l/m 1,6 km/h (1 Bft) NO 45 0 min 0,000 mm 5 W/m 2,8 C 4,1 C 8,0 km/h (2 Bft) 100 %
01.04.2016 07:40 4,2 C 4,1 C 4,2 C 91 % 1013,0 hPa 0,0 l/m 1,6 km/h (1 Bft) NO 45 0 min 0,000 mm 18 W/m 2,9 C 4,2 C 9,7 km/h (2 Bft) 100 %
01.04.2016 07:50 4,2 C 4,2 C 4,2 C 91 % 1013,4 hPa 0,0 l/m 3,2 km/h (1 Bft) NO 45 0 min 0,000 mm 16 W/m 2,9 C 4,2 C 9,7 km/h (2 Bft) 91 %
01.04.2016 08:00 4,2 C 4,2 C 4,2 C 91 % 1013,7 hPa 0,0 l/m 0,0 km/h (0 Bft) NO 45 0 min 0,000 mm 18 W/m 2,9 C 4,2 C 4,8 km/h (1 Bft) 100 %
01.04.2016 08:10 4,3 C 4,2 C 4,3 C 91 % 1013,9 hPa 0,0 l/m 0,0 km/h (0 Bft) N-NO 22 0 min 0,000 mm 19 W/m 3,0 C 4,3 C 1,6 km/h (1 Bft) 100 %
01.04.2016 08:20 4,2 C 4,2 C 4,3 C 91 % 1014,0 hPa 0,0 l/m 0,0 km/h (0 Bft) N-NO 22 0 min 0,000 mm 21 W/m 2,9 C 4,2 C 6,4 km/h (2 Bft) 100 %
01.04.2016 08:30 4,2 C 4,2 C 4,2 C 91 % 1014,5 hPa 0,0 l/m 0,0 km/h (0 Bft) N-NW 337 0 min 0,000 mm 18 W/m 2,9 C 4,2 C 4,8 km/h (1 Bft) 100 %
01.04.2016 08:40 4,2 C 4,2 C 4,2 C 91 % 1014,5 hPa 0,0 l/m 0,0 km/h (0 Bft) N-NO 22 0 min 0,000 mm 28 W/m 2,9 C 4,2 C 4,8 km/h (1 Bft) 100 %
01.04.2016 08:50 4,2 C 4,2 C 4,2 C 91 % 1014,7 hPa 0,0 l/m 0,0 km/h (0 Bft) N-NW 337 0 min 0,000 mm 35 W/m 2,9 C 4,2 C 1,6 km/h (1 Bft) 100 %
01.04.2016 09:00 4,2 C 4,2 C 4,2 C 92 % 1015,0 hPa 0,0 l/m 0,0 km/h (0 Bft) N 360 0 min 0,000 mm 30 W/m 3,0 C 4,2 C 4,8 km/h (1 Bft) 100 %
01.04.2016 09:10 4,2 C 4,2 C 4,2 C 91 % 1015,4 hPa 0,0 l/m 1,6 km/h (1 Bft) N-NW 337 0 min 0,000 mm 30 W/m 2,9 C 4,2 C 9,7 km/h (2 Bft) 100 %
01.04.2016 09:20 4,2 C 4,2 C 4,3 C 92 % 1015,6 hPa 0,0 l/m 1,6 km/h (1 Bft) N-NW 337 0 min 0,000 mm 35 W/m 3,0 C 4,2 C 9,7 km/h (2 Bft) 100 %
01.04.2016 09:30 4,1 C 4,1 C 4,3 C 92 % 1015,5 hPa 0,0 l/m 1,6 km/h (1 Bft) NO 45 0 min 0,000 mm 65 W/m 2,9 C 4,1 C 8,0 km/h (2 Bft) 100 %
01.04.2016 09:40 4,2 C 4,1 C 4,2 C 92 % 1015,5 hPa 0,0 l/m 1,6 km/h (1 Bft) NO 45 0 min 0,000 mm 130 W/m 3,0 C 4,2 C 6,4 km/h (2 Bft) 100 %
01.04.2016 09:50 4,3 C 4,2 C 4,3 C 92 % 1015,9 hPa 0,0 l/m 0,0 km/h (0 Bft) O 90 0 min 0,000 mm 128 W/m 3,1 C 4,3 C 16,1 km/h (3 Bft) 100 %
01.04.2016 10:00 4,4 C 4,3 C 4,4 C 91 % 1015,9 hPa 0,0 l/m 1,6 km/h (1 Bft) NO 45 0 min 0,025 mm 120 W/m 3,1 C 4,4 C 8,0 km/h (2 Bft) 100 %
01.04.2016 10:10 4,6 C 4,4 C 4,6 C 91 % 1016,0 hPa 0,0 l/m 1,6 km/h (1 Bft) NO 45 10 min 0,000 mm 223 W/m 3,3 C 4,6 C 8,0 km/h (2 Bft) 100 %
01.04.2016 10:20 4,7 C 4,6 C 4,7 C 91 % 1016,4 hPa 0,0 l/m 0,0 km/h (0 Bft) NO 45 0 min 0,000 mm 111 W/m 3,4 C 4,7 C 6,4 km/h (2 Bft) 100 %
01.04.2016 10:30 4,7 C 4,7 C 4,7 C 90 % 1016,7 hPa 0,0 l/m 0,0 km/h (0 Bft) NO 45 0 min 0,000 mm 100 W/m 3,2 C 4,7 C 9,7 km/h (2 Bft) 100 %
01.04.2016 10:40 4,7 C 4,7 C 4,7 C 90 % 1016,9 hPa 0,0 l/m 0,0 km/h (0 Bft) NO 45 0 min 0,000 mm 125 W/m 3,2 C 4,7 C 4,8 km/h (1 Bft) 100 %
01.04.2016 10:50 4,9 C 4,7 C 4,9 C 91 % 1017,3 hPa 0,0 l/m 0,0 km/h (0 Bft) N-NO 22 0 min 0,000 mm 148 W/m 3,6 C 4,9 C 11,3 km/h (2 Bft) 100 %
01.04.2016 11:00 4,8 C 4,8 C 4,9 C 90 % 1017,5 hPa 0,0 l/m 0,0 km/h (0 Bft) N-NO 22 0 min 0,051 mm 114 W/m 3,3 C 4,8 C 6,4 km/h (2 Bft) 100 %
01.04.2016 11:10 4,8 C 4,8 C 4,9 C 90 % 1017,8 hPa 0,0 l/m 1,6 km/h (1 Bft) NO 45 0 min 0,000 mm 120 W/m 3,3 C 4,8 C 9,7 km/h (2 Bft) 100 %
01.04.2016 11:20 4,9 C 4,8 C 4,9 C 90 % 1017,9 hPa 0,0 l/m 0,0 km/h (0 Bft) NO 45 0 min 0,000 mm 100 W/m 3,4 C 4,9 C 9,7 km/h (2 Bft) 100 %
01.04.2016 11:30 4,9 C 4,9 C 4,9 C 89 % 1018,0 hPa 0,0 l/m 0,0 km/h (0 Bft) NO 45 0 min 0,000 mm 104 W/m 3,2 C 4,9 C 8,0 km/h (2 Bft) 100 %
01.04.2016 11:40 4,9 C 4,9 C 4,9 C 88 % 1018,2 hPa 0,0 l/m 4,8 km/h (1 Bft) NO 45 0 min 0,000 mm 121 W/m 3,1 C 4,9 C 11,3 km/h (2 Bft) 100 %
01.04.2016 11:50 5,0 C 4,9 C 5,0 C 88 % 1018,4 hPa 0,0 l/m 3,2 km/h (1 Bft) NO 45 0 min 0,000 mm 111 W/m 3,2 C 5,0 C 9,7 km/h (2 Bft) 91 %
01.04.2016 12:00 5,1 C 5,0 C 5,1 C 88 % 1018,5 hPa 0,0 l/m 3,2 km/h (1 Bft) NO 45 0 min 0,051 mm 116 W/m 3,3 C 5,1 C 11,3 km/h (2 Bft) 100 %
01.04.2016 12:10 5,2 C 5,1 C 5,2 C 88 % 1018,6 hPa 0,0 l/m 3,2 km/h (1 Bft) NO 45 10 min 0,000 mm 181 W/m 3,4 C 5,2 C 9,7 km/h (2 Bft) 100 %
01.04.2016 12:20 5,4 C 5,2 C 5,4 C 86 % 1018,4 hPa 0,0 l/m 1,6 km/h (1 Bft) NO 45 10 min 0,000 mm 227 W/m 3,3 C 5,4 C 14,5 km/h (3 Bft) 100 %
01.04.2016 12:30 5,7 C 5,4 C 5,7 C 87 % 1018,4 hPa 0,0 l/m 0,0 km/h (0 Bft) NO 45 10 min 0,000 mm 301 W/m 3,7 C 5,7 C 6,4 km/h (2 Bft) 100 %
01.04.2016 12:40 6,2 C 5,7 C 6,2 C 86 % 1018,5 hPa 0,0 l/m 1,6 km/h (1 Bft) O-SO 112 10 min 0,000 mm 432 W/m 4,0 C 6,2 C 9,7 km/h (2 Bft) 100 %
01.04.2016 12:50 6,3 C 6,2 C 6,3 C 85 % 1018,6 hPa 0,0 l/m 4,8 km/h (1 Bft) NO 45 10 min 0,000 mm 229 W/m 4,0 C 6,3 C 11,3 km/h (2 Bft) 100 %
01.04.2016 13:00 6,3 C 6,2 C 6,3 C 84 % 1018,8 hPa 0,0 l/m 3,2 km/h (1 Bft) O 90 10 min 0,102 mm 297 W/m 3,8 C 6,3 C 11,3 km/h (2 Bft) 100 %
01.04.2016 13:10 6,4 C 6,3 C 6,4 C 83 % 1019,0 hPa 0,0 l/m 3,2 km/h (1 Bft) NO 45 10 min 0,000 mm 241 W/m 3,7 C 6,4 C 9,7 km/h (2 Bft) 100 %
01.04.2016 13:20 6,3 C 6,3 C 6,4 C 83 % 1019,1 hPa 0,0 l/m 3,2 km/h (1 Bft) NO 45 0 min 0,000 mm 125 W/m 3,6 C 6,3 C 8,0 km/h (2 Bft) 100 %
01.04.2016 13:30 6,3 C 6,3 C 6,3 C 84 % 1019,3 hPa 0,0 l/m 3,2 km/h (1 Bft) NO 45 0 min 0,000 mm 132 W/m 3,8 C 6,3 C 11,3 km/h (2 Bft) 100 %
01.04.2016 13:40 6,3 C 6,2 C 6,3 C 84 % 1019,6 hPa 0,0 l/m 1,6 km/h (1 Bft) NO 45 0 min 0,000 mm 104 W/m 3,8 C 6,3 C 11,3 km/h (2 Bft) 100 %
01.04.2016 13:50 6,3 C 6,3 C 6,3 C 83 % 1019,6 hPa 0,0 l/m 1,6 km/h (1 Bft) NO 45 0 min 0,000 mm 116 W/m 3,6 C 6,3 C 8,0 km/h (2 Bft) 100 %
01.04.2016 14:00 6,3 C 6,3 C 6,3 C 85 % 1019,7 hPa 0,0 l/m 1,6 km/h (1 Bft) NO 45 0 min 0,051 mm 98 W/m 4,0 C 6,3 C 6,4 km/h (2 Bft) 100 %
01.04.2016 14:10 6,3 C 6,3 C 6,3 C 84 % 1019,6 hPa 0,0 l/m 4,8 km/h (1 Bft) NO 45 0 min 0,000 mm 148 W/m 3,8 C 6,3 C 9,7 km/h (2 Bft) 100 %
01.04.2016 14:20 6,3 C 6,2 C 6,3 C 84 % 1019,7 hPa 0,0 l/m 1,6 km/h (1 Bft) NO 45 10 min 0,000 mm 174 W/m 3,8 C 6,3 C 9,7 km/h (2 Bft) 90 %
01.04.2016 14:30 6,5 C 6,3 C 6,5 C 83 % 1019,8 hPa 0,0 l/m 1,6 km/h (1 Bft) NO 45 10 min 0,000 mm 176 W/m 3,8 C 6,5 C 9,7 km/h (2 Bft) 100 %
01.04.2016 14:40 6,7 C 6,5 C 6,7 C 83 % 1019,8 hPa 0,0 l/m 0,0 km/h (0 Bft) NO 45 10 min 0,000 mm 188 W/m 4,0 C 6,7 C 6,4 km/h (2 Bft) 100 %
01.04.2016 14:50 6,9 C 6,7 C 6,9 C 82 % 1019,7 hPa 0,0 l/m 1,6 km/h (1 Bft) NO 45 10 min 0,000 mm 188 W/m 4,0 C 6,9 C 6,4 km/h (2 Bft) 100 %
01.04.2016 15:00 7,1 C 6,9 C 7,1 C 82 % 1019,6 hPa 0,0 l/m 1,6 km/h (1 Bft) NO 45 10 min 0,076 mm 199 W/m 4,2 C 7,1 C 8,0 km/h (2 Bft) 100 %
01.04.2016 15:10 7,3 C 7,1 C 7,3 C 82 % 1019,3 hPa 0,0 l/m 3,2 km/h (1 Bft) NO 45 10 min 0,000 mm 278 W/m 4,4 C 7,3 C 14,5 km/h (3 Bft) 100 %
01.04.2016 15:20 7,4 C 7,3 C 7,4 C 80 % 1019,3 hPa 0,0 l/m 6,4 km/h (2 Bft) NO 45 10 min 0,000 mm 327 W/m 4,2 C 7,4 C 11,3 km/h (2 Bft) 100 %
01.04.2016 15:30 7,6 C 7,3 C 7,6 C 80 % 1019,4 hPa 0,0 l/m 1,7 km/h (1 Bft) NO 34 10 min 0,000 mm 255 W/m 4,4 C 7,6 C 6,4 km/h (2 Bft) 98 %
01.04.2016 15:40 7,8 C 7,6 C 7,8 C 81 % 1019,3 hPa 0,0 l/m 2,7 km/h (1 Bft) O 95 10 min 0,000 mm 287 W/m 4,7 C 7,8 C 11,3 km/h (2 Bft) 100 %
01.04.2016 15:50 8,1 C 7,8 C 8,1 C 79 % 1019,4 hPa 0,0 l/m 2,3 km/h (1 Bft) NO 39 10 min 0,000 mm 250 W/m 4,7 C 8,1 C 11,3 km/h (2 Bft) 100 %
01.04.2016 16:00 8,3 C 8,1 C 8,3 C 78 % 1019,3 hPa 0,0 l/m 1,7 km/h (1 Bft) NO 34 10 min 0,127 mm 271 W/m 4,7 C 8,3 C 9,7 km/h (2 Bft) 100 %
01.04.2016 16:10 8,4 C 8,3 C 8,4 C 77 % 1019,4 hPa 0,0 l/m 1,3 km/h (1 Bft) SW 227 10 min 0,000 mm 243 W/m 4,6 C 8,4 C 8,0 km/h (2 Bft) 100 %
01.04.2016 16:20 8,5 C 8,4 C 8,5 C 78 % 1019,4 hPa 0,0 l/m 1,3 km/h (1 Bft) SO 136 10 min 0,000 mm 225 W/m 4,9 C 8,5 C 14,5 km/h (3 Bft) 100 %
01.04.2016 16:30 8,6 C 8,5 C 8,6 C 75 % 1019,4 hPa 0,0 l/m 1,1 km/h (1 Bft) NO 55 10 min 0,000 mm 185 W/m 4,4 C 8,6 C 11,3 km/h (2 Bft) 100 %
01.04.2016 16:40 8,5 C 8,5 C 8,6 C 77 % 1019,3 hPa 0,0 l/m 2,8 km/h (1 Bft) O 101 10 min 0,000 mm 181 W/m 4,7 C 8,5 C 11,3 km/h (2 Bft) 100 %
01.04.2016 16:50 8,6 C 8,5 C 8,6 C 77 % 1019,5 hPa 0,0 l/m 0,9 km/h (0 Bft) SO 135 10 min 0,000 mm 163 W/m 4,8 C 8,6 C 8,0 km/h (2 Bft) 99 %
01.04.2016 17:00 8,5 C 8,5 C 8,6 C 77 % 1019,5 hPa 0,0 l/m 3,5 km/h (1 Bft) SO 130 0 min 0,101 mm 137 W/m 4,7 C 8,5 C 17,7 km/h (3 Bft) 100 %
01.04.2016 17:10 8,1 C 8,1 C 8,5 C 78 % 1019,5 hPa 0,0 l/m 5,5 km/h (1 Bft) S-SO 148 0 min 0,000 mm 141 W/m 4,5 C 8,1 C 19,3 km/h (3 Bft) 100 %
01.04.2016 17:20 8,1 C 8,1 C 8,1 C 80 % 1019,5 hPa 0,0 l/m 0,5 km/h (0 Bft) O-SO 114 0 min 0,000 mm 130 W/m 4,9 C 8,1 C 9,7 km/h (2 Bft) 100 %
01.04.2016 17:30 8,1 C 8,1 C 8,2 C 79 % 1019,5 hPa 0,0 l/m 2,6 km/h (1 Bft) O 98 0 min 0,000 mm 120 W/m 4,7 C 8,1 C 16,1 km/h (3 Bft) 100 %
01.04.2016 17:40 8,0 C 8,0 C 8,1 C 78 % 1019,5 hPa 0,0 l/m 2,8 km/h (1 Bft) O 96 0 min 0,000 mm 113 W/m 4,4 C 8,0 C 11,3 km/h (2 Bft) 100 %
01.04.2016 17:50 7,9 C 7,9 C 8,0 C 80 % 1019,4 hPa 0,0 l/m 2,9 km/h (1 Bft) O 100 0 min 0,000 mm 102 W/m 4,7 C 7,9 C 16,1 km/h (3 Bft) 100 %
01.04.2016 18:00 7,8 C 7,8 C 7,9 C 80 % 1019,5 hPa 0,0 l/m 2,1 km/h (1 Bft) O-SO 102 0 min 0,051 mm 88 W/m 4,6 C 7,8 C 16,1 km/h (3 Bft) 100 %
01.04.2016 18:10 7,8 C 7,8 C 7,8 C 81 % 1019,5 hPa 0,0 l/m 2,4 km/h (1 Bft) SO 137 0 min 0,000 mm 88 W/m 4,7 C 7,8 C 11,3 km/h (2 Bft) 100 %
01.04.2016 18:20 7,8 C 7,8 C 7,8 C 80 % 1019,6 hPa 0,0 l/m 1,7 km/h (1 Bft) O 82 0 min 0,000 mm 69 W/m 4,6 C 7,8 C 14,5 km/h (3 Bft) 91 %
01.04.2016 18:30 7,7 C 7,6 C 7,8 C 81 % 1019,6 hPa 0,0 l/m 2,2 km/h (1 Bft) O 101 0 min 0,000 mm 60 W/m 4,7 C 7,7 C 11,3 km/h (2 Bft) 100 %
01.04.2016 18:40 7,6 C 7,6 C 7,7 C 81 % 1019,6 hPa 0,0 l/m 1,1 km/h (1 Bft) O-SO 123 0 min 0,000 mm 49 W/m 4,6 C 7,6 C 8,0 km/h (2 Bft) 100 %
01.04.2016 18:50 7,6 C 7,6 C 7,6 C 81 % 1019,6 hPa 0,0 l/m 0,8 km/h (0 Bft) O-SO 104 0 min 0,000 mm 42 W/m 4,6 C 7,6 C 8,0 km/h (2 Bft) 100 %
01.04.2016 19:00 7,6 C 7,6 C 7,6 C 82 % 1019,6 hPa 0,0 l/m 0,0 km/h (0 Bft) O-SO 105 0 min 0,025 mm 30 W/m 4,7 C 7,6 C 0,0 km/h (0 Bft) 100 %
01.04.2016 19:10 7,6 C 7,6 C 7,6 C 82 % 1019,7 hPa 0,0 l/m 0,1 km/h (0 Bft) O-SO 107 0 min 0,000 mm 18 W/m 4,7 C 7,6 C 8,0 km/h (2 Bft) 100 %
01.04.2016 19:20 7,6 C 7,6 C 7,6 C 82 % 1019,7 hPa 0,0 l/m 0,6 km/h (0 Bft) O-SO 115 0 min 0,000 mm 12 W/m 4,7 C 7,6 C 6,4 km/h (2 Bft) 100 %
01.04.2016 19:30 7,4 C 7,4 C 7,6 C 82 % 1019,6 hPa 0,0 l/m 0,4 km/h (0 Bft) SO 128 0 min 0,000 mm 12 W/m 4,5 C 7,4 C 3,2 km/h (1 Bft) 100 %
01.04.2016 19:40 7,4 C 7,4 C 7,5 C 82 % 1019,7 hPa 0,0 l/m 0,2 km/h (0 Bft) SO 132 0 min 0,000 mm 5 W/m 4,5 C 7,4 C 4,8 km/h (1 Bft) 91 %
01.04.2016 19:50 7,3 C 7,3 C 7,4 C 83 % 1019,9 hPa 0,0 l/m 0,0 km/h (0 Bft) SO 132 0 min 0,000 mm 0 W/m 4,6 C 7,3 C 0,0 km/h (0 Bft) 100 %
01.04.2016 20:00 7,3 C 7,3 C 7,3 C 82 % 1019,9 hPa 0,0 l/m 0,0 km/h (0 Bft) SO 142 0 min 0,000 mm 0 W/m 4,4 C 7,3 C 1,6 km/h (1 Bft) 100 %
01.04.2016 20:10 7,2 C 7,2 C 7,3 C 83 % 1019,9 hPa 0,0 l/m 0,5 km/h (0 Bft) O 82 0 min 0,000 mm 0 W/m 4,5 C 7,2 C 6,4 km/h (2 Bft) 100 %
01.04.2016 20:20 7,1 C 7,1 C 7,2 C 83 % 1019,9 hPa 0,0 l/m 1,6 km/h (1 Bft) S-SO 147 0 min 0,000 mm 0 W/m 4,4 C 7,1 C 6,4 km/h (2 Bft) 100 %
01.04.2016 20:30 7,1 C 7,0 C 7,1 C 83 % 1020,0 hPa 0,0 l/m 1,0 km/h (0 Bft) S-SO 150 0 min 0,000 mm 0 W/m 4,4 C 7,1 C 6,4 km/h (2 Bft) 100 %
01.04.2016 20:40 7,0 C 7,0 C 7,1 C 83 % 1020,1 hPa 0,0 l/m 1,1 km/h (1 Bft) SO 134 0 min 0,000 mm 0 W/m 4,3 C 7,0 C 6,4 km/h (2 Bft) 100 %
01.04.2016 20:50 7,0 C 7,0 C 7,1 C 84 % 1020,2 hPa 0,0 l/m 0,1 km/h (0 Bft) S-SO 159 0 min 0,000 mm 0 W/m 4,5 C 7,0 C 4,8 km/h (1 Bft) 92 %
01.04.2016 21:00 7,0 C 7,0 C 7,0 C 84 % 1020,1 hPa 0,0 l/m 0,0 km/h (0 Bft) S-SO 161 0 min 0,000 mm 0 W/m 4,5 C 7,0 C 0,0 km/h (0 Bft) 100 %
01.04.2016 21:10 6,9 C 6,9 C 7,0 C 84 % 1020,3 hPa 0,0 l/m 0,0 km/h (0 Bft) S-SO 157 0 min 0,000 mm 0 W/m 4,4 C 6,9 C 1,6 km/h (1 Bft) 100 %
01.04.2016 21:20 6,7 C 6,7 C 6,9 C 84 % 1020,2 hPa 0,0 l/m 0,0 km/h (0 Bft) N 0 0 min 0,000 mm 0 W/m 4,2 C 6,7 C 0,0 km/h (0 Bft) 100 %
01.04.2016 21:30 6,4 C 6,4 C 6,7 C 85 % 1020,3 hPa 0,0 l/m 0,0 km/h (0 Bft) N 0 0 min 0,000 mm 0 W/m 4,1 C 6,4 C 0,0 km/h (0 Bft) 100 %
01.04.2016 21:40 6,2 C 6,2 C 6,4 C 85 % 1020,3 hPa 0,0 l/m 0,0 km/h (0 Bft) N 0 0 min 0,000 mm 0 W/m 3,9 C 6,2 C 0,0 km/h (0 Bft) 100 %
01.04.2016 21:50 5,9 C 5,9 C 6,2 C 86 % 1020,6 hPa 0,0 l/m 0,0 km/h (0 Bft) N 0 0 min 0,000 mm 0 W/m 3,7 C 5,9 C 0,0 km/h (0 Bft) 100 %
01.04.2016 22:00 5,7 C 5,7 C 5,9 C 86 % 1020,5 hPa 0,0 l/m 0,0 km/h (0 Bft) N 0 0 min 0,000 mm 0 W/m 3,5 C 5,7 C 0,0 km/h (0 Bft) 100 %
01.04.2016 22:10 5,6 C 5,6 C 5,7 C 87 % 1020,6 hPa 0,0 l/m 0,0 km/h (0 Bft) N 0 0 min 0,000 mm 0 W/m 3,6 C 5,6 C 0,0 km/h (0 Bft) 100 %
01.04.2016 22:20 5,3 C 5,3 C 5,5 C 88 % 1020,7 hPa 0,0 l/m 0,0 km/h (0 Bft) N 0 0 min 0,000 mm 0 W/m 3,5 C 5,3 C 0,0 km/h (0 Bft) 91 %
01.04.2016 22:30 5,2 C 5,2 C 5,3 C 88 % 1020,6 hPa 0,0 l/m 0,0 km/h (0 Bft) SO 135 0 min 0,000 mm 0 W/m 3,4 C 5,2 C 1,6 km/h (1 Bft) 100 %
01.04.2016 22:40 5,1 C 5,1 C 5,2 C 89 % 1020,6 hPa 0,0 l/m 0,0 km/h (0 Bft) SO 135 0 min 0,000 mm 0 W/m 3,4 C 5,1 C 3,2 km/h (1 Bft) 100 %
01.04.2016 22:50 5,1 C 5,1 C 5,1 C 89 % 1020,6 hPa 0,0 l/m 0,0 km/h (0 Bft) N 0 0 min 0,000 mm 0 W/m 3,4 C 5,1 C 0,0 km/h (0 Bft) 100 %
01.04.2016 23:00 5,1 C 5,1 C 5,1 C 89 % 1020,5 hPa 0,0 l/m 0,0 km/h (0 Bft) N 0 0 min 0,000 mm 0 W/m 3,4 C 5,1 C 0,0 km/h (0 Bft) 100 %
01.04.2016 23:10 5,1 C 5,1 C 5,1 C 89 % 1020,5 hPa 0,0 l/m 0,0 km/h (0 Bft) N 0 0 min 0,000 mm 0 W/m 3,4 C 5,1 C 0,0 km/h (0 Bft) 100 %
01.04.2016 23:20 5,0 C 5,0 C 5,1 C 89 % 1020,4 hPa 0,0 l/m 0,0 km/h (0 Bft) SO 135 0 min 0,000 mm 0 W/m 3,3 C 5,0 C 3,2 km/h (1 Bft) 100 %
01.04.2016 23:30 4,8 C 4,8 C 5,0 C 89 % 1020,4 hPa 0,0 l/m 1,6 km/h (1 Bft) O-SO 112 0 min 0,000 mm 0 W/m 3,1 C 4,8 C 4,8 km/h (1 Bft) 100 %
01.04.2016 23:40 4,6 C 4,6 C 4,8 C 89 % 1020,3 hPa 0,0 l/m 1,6 km/h (1 Bft) O 90 0 min 0,000 mm 0 W/m 2,9 C 4,6 C 4,8 km/h (1 Bft) 100 %
01.04.2016 23:50 4,4 C 4,4 C 4,6 C 89 % 1020,3 hPa 0,0 l/m 0,0 km/h (0 Bft) O 90 0 min 0,000 mm 0 W/m 2,7 C 4,4 C 3,2 km/h (1 Bft) 100 %
_ Min-Zeit 07:20 07:20 07:30 16:30 00:10 - 00:00 - - - - - 23:50 07:20 19:00 00:10
Minimum _ 4,1 C 4,1 C 4,1 C 75 % 1005,0 hPa - 0,0 km/h (0 Bft) - - - - - 2,7 C 4,1 C 0,0 km/h (0 Bft) 79 %
_ Max-Zeit 00:00 00:00 00:00 09:00 22:20 03:20 01:30 - - 10:10 16:00 12:40 00:00 00:00 01:30 00:20
Maximum _ 9,3 C 9,2 C 9,3 C 92 % 1020,7 hPa 0,6 l/m 9,7 km/h
N-NW (2 Bft)
- - 10 min 0,127 mm 432 W/m 7,8 C 9,2 C 24,1 km/h
NW (4 Bft)
100 %
Durchschnitt _ 6,2 C 6,2 C 6,3 C 87 % 1015,6 hPa #3,0 l/m 1,4 km/h (1 Bft) NO - #4:00 h #0,660 mm 130 W/m 4,2 C 6,2 C 8,6 km/h (2 Bft) 99 %
PRIVATE WETTERSTATION BILLIGHEIM-ALLFELD - www.neckar-odenwald-wetter.de - Holger Sonntag